Time;durP1;ratioP1;P1;durP2;ratioP2;P2;SDS_P1;SDS_P2;PMS_P1;PMS_P2;Temp;Humidity;BMP_temperature;BMP_pressure;BME280_temperature;BME280_humidity;BME280_pressure;Samples;Min_cycle;Max_cycle;Signal;HPM_P1;HPM_P2
2023/05/25 00:01:47;;;;;;;10.33;3.23;;;;;;;;;;4973773;28;20042;-47
2023/05/25 00:04:18;;;;;;;9.32;3.83;;;;;;;;;;4985361;28;20070;-48
2023/05/25 00:06:46;;;;;;;12.93;3.55;;;;;;;;;;4970150;28;20060;-48
2023/05/25 00:09:15;;;;;;;10.32;3.20;;;;;;;;;;4968291;28;20039;-45
2023/05/25 00:11:42;;;;;;;13.50;3.75;;;;;;;;;;4963321;28;20070;-46
2023/05/25 00:14:11;;;;;;;11.77;3.73;;;;;;;;;;4978864;28;20474;-45
2023/05/25 00:16:39;;;;;;;12.43;3.80;;;;;;;;;;4965868;28;20375;-45
2023/05/25 00:19:09;;;;;;;11.77;3.55;;;;;;;;;;4983030;28;20046;-46
2023/05/25 00:21:38;;;;;;;12.18;3.70;;;;;;;;;;4977818;28;20058;-48
2023/05/25 00:24:06;;;;;;;9.93;3.85;;;;;;;;;;4993579;28;20061;-46
2023/05/25 00:26:34;;;;;;;10.87;2.80;;;;;;;;;;4971081;28;20611;-49
2023/05/25 00:29:04;;;;;;;11.82;4.07;;;;;;;;;;4967391;28;20034;-46
2023/05/25 00:31:32;;;;;;;11.00;3.13;;;;;;;;;;4970594;28;20033;-47
2023/05/25 00:34:02;;;;;;;12.05;4.03;;;;;;;;;;4983347;28;20053;-47
2023/05/25 00:36:38;;;;;;;13.13;3.78;;;;;;;;;;4985173;28;20785;-47
2023/05/25 00:39:07;;;;;;;8.53;3.13;;;;;;;;;;4973203;28;21459;-48
2023/05/25 00:41:40;;;;;;;9.77;3.50;;;;;;;;;;4976568;28;20050;-47
2023/05/25 00:44:09;;;;;;;11.40;3.67;;;;;;;;;;4970109;28;20065;-46
2023/05/25 00:46:37;;;;;;;11.43;3.45;;;;;;;;;;4955455;28;20046;-45
2023/05/25 00:49:05;;;;;;;14.98;3.72;;;;;;;;;;4988608;28;20041;-46
2023/05/25 00:51:35;;;;;;;12.50;3.93;;;;;;;;;;4976252;28;20563;-46
2023/05/25 00:54:05;;;;;;;11.20;3.92;;;;;;;;;;4983788;28;20046;-46
2023/05/25 00:56:35;;;;;;;11.05;3.95;;;;;;;;;;4963845;28;20042;-46
2023/05/25 00:59:04;;;;;;;12.70;4.03;;;;;;;;;;4967857;28;20038;-49
2023/05/25 01:01:38;;;;;;;13.55;3.90;;;;;;;;;;4975416;28;20125;-47
2023/05/25 01:04:09;;;;;;;13.10;3.87;;;;;;;;;;4972210;28;20050;-46
2023/05/25 01:06:39;;;;;;;11.45;3.88;;;;;;;;;;4978801;28;20129;-48
2023/05/25 01:09:08;;;;;;;11.65;3.47;;;;;;;;;;4980478;28;20048;-45
2023/05/25 01:11:39;;;;;;;14.48;3.90;;;;;;;;;;4960196;28;20054;-48
2023/05/25 01:14:08;;;;;;;10.15;3.58;;;;;;;;;;4979303;28;20054;-45
2023/05/25 01:16:36;;;;;;;11.10;3.60;;;;;;;;;;4959074;28;20042;-46
2023/05/25 01:19:05;;;;;;;11.30;3.80;;;;;;;;;;4980054;28;20068;-50
2023/05/25 01:21:40;;;;;;;9.02;3.45;;;;;;;;;;4975928;28;20038;-47
2023/05/25 01:24:12;;;;;;;17.05;4.00;;;;;;;;;;4954727;28;21010;-48
2023/05/25 01:26:44;;;;;;;8.80;3.88;;;;;;;;;;4979211;28;20038;-45
2023/05/25 01:29:13;;;;;;;15.30;3.73;;;;;;;;;;4980028;28;20122;-47
2023/05/25 01:31:41;;;;;;;12.10;3.60;;;;;;;;;;4968317;28;20050;-45
2023/05/25 01:34:09;;;;;;;19.85;4.00;;;;;;;;;;4976528;28;20492;-47
2023/05/25 01:36:40;;;;;;;11.70;3.40;;;;;;;;;;4982607;28;20173;-47
2023/05/25 01:39:10;;;;;;;9.75;3.97;;;;;;;;;;4974039;28;20041;-48
2023/05/25 01:41:37;;;;;;;9.87;3.30;;;;;;;;;;4971426;28;20584;-49
2023/05/25 01:44:06;;;;;;;10.75;3.78;;;;;;;;;;4977473;28;20108;-46
2023/05/25 01:46:39;;;;;;;12.43;3.78;;;;;;;;;;4940506;28;20077;-46
2023/05/25 01:49:12;;;;;;;15.55;3.78;;;;;;;;;;4976186;28;20045;-46
2023/05/25 01:51:46;;;;;;;10.75;3.67;;;;;;;;;;4966843;28;20038;-48
2023/05/25 01:54:18;;;;;;;11.97;3.57;;;;;;;;;;4986880;28;20077;-46
2023/05/25 01:56:47;;;;;;;11.55;3.83;;;;;;;;;;4967444;28;20674;-47
2023/05/25 01:59:18;;;;;;;11.45;3.97;;;;;;;;;;4989528;28;20085;-46
2023/05/25 02:01:49;;;;;;;12.15;3.60;;;;;;;;;;4981073;28;20052;-46
2023/05/25 02:04:20;;;;;;;10.32;3.85;;;;;;;;;;4986047;28;20060;-46
2023/05/25 02:06:51;;;;;;;18.63;3.97;;;;;;;;;;4960103;28;20314;-46
2023/05/25 02:09:20;;;;;;;8.93;3.67;;;;;;;;;;4974541;28;20070;-45
2023/05/25 02:11:49;;;;;;;14.68;4.13;;;;;;;;;;4949030;28;20042;-46
2023/05/25 02:14:17;;;;;;;12.73;4.15;;;;;;;;;;4984643;28;20046;-49
2023/05/25 02:16:45;;;;;;;12.25;3.83;;;;;;;;;;4954783;28;20038;-46
2023/05/25 02:19:14;;;;;;;12.70;3.57;;;;;;;;;;4917075;28;20403;-45
2023/05/25 02:21:42;;;;;;;12.82;3.58;;;;;;;;;;4969202;28;20046;-46
2023/05/25 02:24:13;;;;;;;11.98;3.80;;;;;;;;;;4980423;28;20042;-46
2023/05/25 02:26:40;;;;;;;10.15;3.78;;;;;;;;;;4969562;28;20046;-48
2023/05/25 02:29:10;;;;;;;11.65;3.25;;;;;;;;;;4967020;28;20507;-47
2023/05/25 02:31:40;;;;;;;10.97;4.00;;;;;;;;;;4971257;28;20089;-47
2023/05/25 02:34:08;;;;;;;12.40;3.72;;;;;;;;;;4973063;28;20039;-47
2023/05/25 02:36:36;;;;;;;10.40;3.78;;;;;;;;;;4981213;28;20041;-46
2023/05/25 02:39:05;;;;;;;11.15;3.80;;;;;;;;;;4977851;28;20049;-46
2023/05/25 02:41:34;;;;;;;10.55;3.55;;;;;;;;;;4963766;28;20043;-46
2023/05/25 02:44:02;;;;;;;15.10;3.90;;;;;;;;;;4971842;28;20053;-45
2023/05/25 02:46:32;;;;;;;11.00;3.50;;;;;;;;;;4963666;28;20105;-47
2023/05/25 02:48:59;;;;;;;14.15;3.95;;;;;;;;;;4984422;28;20045;-49
2023/05/25 02:51:27;;;;;;;14.27;4.05;;;;;;;;;;4973678;28;20057;-46
2023/05/25 02:53:56;;;;;;;11.00;3.85;;;;;;;;;;4983562;28;20041;-48
2023/05/25 02:56:26;;;;;;;15.20;4.43;;;;;;;;;;4973065;28;21071;-49
2023/05/25 02:58:55;;;;;;;12.15;3.88;;;;;;;;;;4990411;28;20132;-47
2023/05/25 03:01:24;;;;;;;10.93;3.40;;;;;;;;;;4970284;28;20042;-45
2023/05/25 03:03:52;;;;;;;9.80;3.55;;;;;;;;;;4980954;28;20484;-46
2023/05/25 03:06:21;;;;;;;10.70;3.50;;;;;;;;;;4967108;28;20796;-46
2023/05/25 03:08:50;;;;;;;11.63;3.70;;;;;;;;;;4984594;28;20045;-46
2023/05/25 03:11:17;;;;;;;10.65;3.88;;;;;;;;;;4972000;28;20127;-47
2023/05/25 03:13:45;;;;;;;14.18;3.60;;;;;;;;;;4963803;28;20504;-51
2023/05/25 03:16:15;;;;;;;16.02;4.10;;;;;;;;;;4956892;28;20038;-45
2023/05/25 03:18:43;;;;;;;12.27;4.65;;;;;;;;;;4976304;28;20060;-46
2023/05/25 03:21:11;;;;;;;12.03;3.90;;;;;;;;;;4973776;28;20521;-47
2023/05/25 03:23:40;;;;;;;10.90;3.00;;;;;;;;;;4980200;28;20038;-46
2023/05/25 03:26:07;;;;;;;13.25;3.85;;;;;;;;;;4978995;28;20441;-46
2023/05/25 03:28:36;;;;;;;12.93;3.50;;;;;;;;;;4988186;28;20107;-46
2023/05/25 03:31:05;;;;;;;17.00;4.30;;;;;;;;;;4953499;28;20046;-49
2023/05/25 03:33:34;;;;;;;13.37;4.57;;;;;;;;;;4989426;28;20518;-48
2023/05/25 03:36:06;;;;;;;13.98;4.55;;;;;;;;;;4992047;28;20042;-47
2023/05/25 03:38:35;;;;;;;18.48;4.70;;;;;;;;;;4978408;28;20038;-46
2023/05/25 03:41:03;;;;;;;15.48;4.32;;;;;;;;;;4974698;28;20093;-49
2023/05/25 03:43:31;;;;;;;12.55;4.30;;;;;;;;;;4977400;28;20506;-45
2023/05/25 03:45:59;;;;;;;9.70;4.03;;;;;;;;;;4964927;28;20101;-46
2023/05/25 03:48:27;;;;;;;16.05;5.13;;;;;;;;;;4982687;28;20045;-46
2023/05/25 03:50:56;;;;;;;10.35;4.00;;;;;;;;;;4977436;28;20044;-49
2023/05/25 03:53:25;;;;;;;14.02;3.90;;;;;;;;;;4984252;28;20034;-45
2023/05/25 03:55:53;;;;;;;16.35;4.57;;;;;;;;;;4974007;28;20046;-48
2023/05/25 03:58:21;;;;;;;17.47;4.53;;;;;;;;;;4977834;28;20030;-47
2023/05/25 04:00:51;;;;;;;17.98;4.22;;;;;;;;;;4990506;28;20046;-45
2023/05/25 04:03:22;;;;;;;13.52;4.15;;;;;;;;;;4976344;28;20065;-46
2023/05/25 04:05:51;;;;;;;13.57;3.80;;;;;;;;;;4983888;28;20558;-46
2023/05/25 04:08:21;;;;;;;12.85;3.30;;;;;;;;;;4971695;28;20395;-46
2023/05/25 04:10:50;;;;;;;13.53;3.93;;;;;;;;;;4978499;28;20488;-46
2023/05/25 04:13:18;;;;;;;13.23;4.03;;;;;;;;;;4962114;28;20038;-45
2023/05/25 04:15:45;;;;;;;13.20;3.88;;;;;;;;;;4985221;28;20034;-49
2023/05/25 04:18:14;;;;;;;11.80;3.45;;;;;;;;;;4973506;28;20516;-46
2023/05/25 04:20:43;;;;;;;9.82;3.58;;;;;;;;;;4980335;28;20050;-46
2023/05/25 04:23:11;;;;;;;13.77;3.33;;;;;;;;;;4979244;28;20045;-45
2023/05/25 04:25:41;;;;;;;18.50;3.78;;;;;;;;;;4975703;28;20570;-50
2023/05/25 04:28:11;;;;;;;10.13;2.88;;;;;;;;;;4982920;28;20049;-46
2023/05/25 04:30:40;;;;;;;15.07;3.67;;;;;;;;;;4962596;28;20044;-47
2023/05/25 04:33:11;;;;;;;14.25;3.55;;;;;;;;;;4985218;28;20038;-46
2023/05/25 04:35:39;;;;;;;12.60;3.77;;;;;;;;;;4977371;28;20093;-47
2023/05/25 04:38:07;;;;;;;9.98;3.20;;;;;;;;;;4979843;28;20052;-47
2023/05/25 04:40:35;;;;;;;10.93;4.07;;;;;;;;;;4962558;28;20042;-48
2023/05/25 04:43:05;;;;;;;11.48;3.53;;;;;;;;;;4974224;28;20038;-47
2023/05/25 04:45:32;;;;;;;14.65;3.35;;;;;;;;;;4956447;28;20631;-46
2023/05/25 04:48:01;;;;;;;13.20;3.27;;;;;;;;;;4977114;28;20540;-45
2023/05/25 04:50:29;;;;;;;11.90;3.38;;;;;;;;;;4960576;28;20588;-47
2023/05/25 04:52:57;;;;;;;9.48;3.35;;;;;;;;;;4974306;28;20035;-47
2023/05/25 04:55:25;;;;;;;10.13;3.40;;;;;;;;;;4975399;28;20042;-48
2023/05/25 04:57:54;;;;;;;10.35;3.58;;;;;;;;;;4974676;28;20038;-47
2023/05/25 05:00:23;;;;;;;14.17;3.30;;;;;;;;;;4980416;28;20041;-46
2023/05/25 05:02:52;;;;;;;8.63;2.55;;;;;;;;;;4971916;28;20616;-45
2023/05/25 05:05:21;;;;;;;12.05;3.28;;;;;;;;;;4951029;28;20495;-46
2023/05/25 05:07:49;;;;;;;10.07;3.08;;;;;;;;;;4972431;28;20318;-45
2023/05/25 05:10:17;;;;;;;14.10;3.05;;;;;;;;;;4982791;28;20226;-48
2023/05/25 05:12:45;;;;;;;10.87;2.97;;;;;;;;;;4977032;28;20034;-48
2023/05/25 05:15:13;;;;;;;13.48;3.00;;;;;;;;;;4986786;28;20064;-45
2023/05/25 05:17:43;;;;;;;12.45;4.35;;;;;;;;;;4961453;28;20618;-49
2023/05/25 05:20:12;;;;;;;12.45;3.08;;;;;;;;;;4975853;28;20058;-49
2023/05/25 05:22:42;;;;;;;10.75;3.30;;;;;;;;;;4978133;28;20125;-50
2023/05/25 05:25:12;;;;;;;10.80;3.37;;;;;;;;;;4967649;28;20053;-52
2023/05/25 05:27:40;;;;;;;10.25;3.00;;;;;;;;;;4983077;28;20039;-47
2023/05/25 05:30:08;;;;;;;17.50;3.72;;;;;;;;;;4978180;28;20104;-48
2023/05/25 05:32:36;;;;;;;12.13;3.63;;;;;;;;;;4986679;28;20038;-47
2023/05/25 05:35:07;;;;;;;9.70;3.10;;;;;;;;;;4975146;28;20037;-45
2023/05/25 05:37:35;;;;;;;11.73;2.87;;;;;;;;;;4962070;28;20043;-45
2023/05/25 05:40:04;;;;;;;13.00;3.35;;;;;;;;;;4970230;28;20046;-47
2023/05/25 05:42:32;;;;;;;9.15;2.25;;;;;;;;;;4970390;28;20034;-46
2023/05/25 05:45:00;;;;;;;11.80;2.80;;;;;;;;;;4983709;28;20045;-46
2023/05/25 05:47:28;;;;;;;10.23;2.90;;;;;;;;;;4965338;28;20034;-46
2023/05/25 05:49:56;;;;;;;13.70;3.50;;;;;;;;;;4974918;28;20124;-46
2023/05/25 05:52:25;;;;;;;12.60;2.88;;;;;;;;;;4969607;28;20069;-52
2023/05/25 05:54:54;;;;;;;12.45;3.25;;;;;;;;;;4985003;28;20057;-47
2023/05/25 05:57:22;;;;;;;12.20;2.80;;;;;;;;;;4986183;28;20042;-47
2023/05/25 05:59:50;;;;;;;11.93;3.33;;;;;;;;;;4975636;28;20058;-49
2023/05/25 06:02:19;;;;;;;13.03;3.27;;;;;;;;;;4978832;28;20112;-46
2023/05/25 06:04:47;;;;;;;10.55;2.60;;;;;;;;;;4967208;28;20034;-45
2023/05/25 06:07:15;;;;;;;10.90;3.03;;;;;;;;;;4975823;28;20073;-46
2023/05/25 06:09:45;;;;;;;12.18;3.47;;;;;;;;;;4961162;28;20049;-48
2023/05/25 06:12:15;;;;;;;10.02;2.17;;;;;;;;;;4974197;28;20046;-47
2023/05/25 06:14:43;;;;;;;14.10;2.90;;;;;;;;;;4983350;28;20034;-46
2023/05/25 06:17:10;;;;;;;10.90;2.67;;;;;;;;;;4973586;28;20108;-45
2023/05/25 06:19:39;;;;;;;10.98;2.33;;;;;;;;;;4967735;28;20050;-46
2023/05/25 06:22:06;;;;;;;12.20;2.65;;;;;;;;;;4968655;28;20050;-47
2023/05/25 06:24:35;;;;;;;9.65;2.97;;;;;;;;;;4975990;28;20033;-47
2023/05/25 06:27:05;;;;;;;10.00;3.27;;;;;;;;;;4966909;28;20053;-47
2023/05/25 06:29:32;;;;;;;9.77;2.67;;;;;;;;;;4970459;28;20041;-46
2023/05/25 06:32:01;;;;;;;10.00;2.70;;;;;;;;;;4966195;28;20065;-48
2023/05/25 06:34:29;;;;;;;9.88;2.65;;;;;;;;;;4976947;28;20129;-46
2023/05/25 06:36:57;;;;;;;13.90;3.17;;;;;;;;;;4968683;28;20057;-45
2023/05/25 06:39:25;;;;;;;12.47;2.80;;;;;;;;;;4979909;28;20306;-47
2023/05/25 06:41:53;;;;;;;11.25;2.85;;;;;;;;;;4972205;28;20089;-48
2023/05/25 06:44:22;;;;;;;11.15;2.80;;;;;;;;;;4947825;28;20061;-47
2023/05/25 06:46:52;;;;;;;10.32;3.00;;;;;;;;;;4963734;28;20053;-46
2023/05/25 06:49:20;;;;;;;16.70;3.00;;;;;;;;;;4981875;28;20492;-46
2023/05/25 06:51:49;;;;;;;13.53;3.30;;;;;;;;;;4972387;28;20053;-48
2023/05/25 06:54:18;;;;;;;9.95;2.97;;;;;;;;;;4988401;28;20046;-45
2023/05/25 06:56:46;;;;;;;10.93;3.00;;;;;;;;;;4968765;28;20042;-46
2023/05/25 06:59:13;;;;;;;9.43;3.22;;;;;;;;;;4988174;28;20058;-46
2023/05/25 07:01:43;;;;;;;7.88;2.58;;;;;;;;;;4966030;28;20088;-46
2023/05/25 07:04:11;;;;;;;10.67;3.00;;;;;;;;;;4967467;28;20048;-45
2023/05/25 07:06:39;;;;;;;11.75;2.83;;;;;;;;;;4990078;28;20042;-47
2023/05/25 07:09:07;;;;;;;10.95;2.55;;;;;;;;;;4966676;28;20071;-50
2023/05/25 07:11:35;;;;;;;7.07;2.55;;;;;;;;;;4977947;28;20061;-47
2023/05/25 07:14:03;;;;;;;11.90;2.88;;;;;;;;;;4968203;28;20447;-49
2023/05/25 07:16:30;;;;;;;13.70;2.90;;;;;;;;;;4971877;28;20547;-46
2023/05/25 07:19:00;;;;;;;11.48;3.00;;;;;;;;;;4959817;28;20562;-46
2023/05/25 07:21:32;;;;;;;9.82;2.83;;;;;;;;;;4986360;28;20070;-49
2023/05/25 07:24:00;;;;;;;9.32;2.38;;;;;;;;;;4966946;28;20042;-46
2023/05/25 07:26:28;;;;;;;8.65;2.40;;;;;;;;;;4980626;28;20598;-47
2023/05/25 07:28:56;;;;;;;9.00;2.40;;;;;;;;;;4966040;28;20413;-47
2023/05/25 07:31:24;;;;;;;9.00;2.30;;;;;;;;;;4976211;28;20092;-47
2023/05/25 07:33:52;;;;;;;9.10;2.47;;;;;;;;;;4970316;28;20521;-46
2023/05/25 07:36:23;;;;;;;10.25;2.40;;;;;;;;;;4980183;28;20061;-48
2023/05/25 07:38:52;;;;;;;8.48;2.60;;;;;;;;;;4976352;28;20045;-47
2023/05/25 07:41:20;;;;;;;12.10;3.13;;;;;;;;;;4979371;28;20046;-48
2023/05/25 07:43:47;;;;;;;9.73;2.50;;;;;;;;;;4974008;28;20504;-47
2023/05/25 07:46:16;;;;;;;13.70;2.88;;;;;;;;;;4981782;28;20030;-48
2023/05/25 07:48:44;;;;;;;10.43;3.33;;;;;;;;;;4955606;28;20404;-47
2023/05/25 07:51:11;;;;;;;11.82;2.30;;;;;;;;;;4976785;28;20096;-47
2023/05/25 07:53:42;;;;;;;10.27;3.03;;;;;;;;;;4977861;28;20053;-49
2023/05/25 07:56:10;;;;;;;11.95;2.75;;;;;;;;;;4957516;28;20414;-49
2023/05/25 07:58:38;;;;;;;11.65;3.35;;;;;;;;;;4960267;28;20042;-47
2023/05/25 08:01:06;;;;;;;9.43;3.33;;;;;;;;;;4965353;28;20053;-47
2023/05/25 08:03:34;;;;;;;6.72;2.20;;;;;;;;;;4965499;28;20064;-47
2023/05/25 08:06:16;;;;;;;11.17;2.80;;;;;;;;;;4958228;28;20045;-47
2023/05/25 08:08:45;;;;;;;8.32;2.45;;;;;;;;;;4960985;28;20485;-46
2023/05/25 08:11:15;;;;;;;9.98;2.50;;;;;;;;;;4964605;28;20045;-45
2023/05/25 08:13:45;;;;;;;9.68;2.72;;;;;;;;;;4966881;28;20050;-50
2023/05/25 08:16:13;;;;;;;9.98;3.47;;;;;;;;;;4950743;28;20135;-48
2023/05/25 08:18:45;;;;;;;10.50;3.03;;;;;;;;;;4957690;28;20147;-46
2023/05/25 08:21:13;;;;;;;8.48;3.05;;;;;;;;;;4953506;28;20157;-46
2023/05/25 08:23:42;;;;;;;7.45;2.47;;;;;;;;;;4963436;28;20061;-48
2023/05/25 08:26:11;;;;;;;7.80;2.10;;;;;;;;;;4945910;28;20510;-47
2023/05/25 08:28:42;;;;;;;8.77;2.25;;;;;;;;;;4962828;28;20057;-45
2023/05/25 08:31:10;;;;;;;7.60;2.37;;;;;;;;;;4947878;28;20069;-50
2023/05/25 08:33:38;;;;;;;7.90;2.17;;;;;;;;;;4966188;28;20041;-48
2023/05/25 08:36:08;;;;;;;8.52;2.20;;;;;;;;;;4973032;28;20034;-45
2023/05/25 08:38:35;;;;;;;8.10;1.70;;;;;;;;;;4967979;28;20070;-45
2023/05/25 08:41:04;;;;;;;9.88;2.17;;;;;;;;;;4975853;28;20295;-47
2023/05/25 08:43:34;;;;;;;8.30;2.43;;;;;;;;;;4973555;28;20523;-46
2023/05/25 08:46:04;;;;;;;10.93;2.50;;;;;;;;;;4988586;28;20042;-46
2023/05/25 08:48:34;;;;;;;8.27;2.03;;;;;;;;;;4976604;28;20038;-47
2023/05/25 08:51:10;;;;;;;9.40;2.50;;;;;;;;;;4968893;28;20046;-46
2023/05/25 08:53:39;;;;;;;7.63;1.58;;;;;;;;;;4974717;28;20136;-47
2023/05/25 08:56:11;;;;;;;7.97;1.80;;;;;;;;;;4973042;28;20046;-46
2023/05/25 08:58:45;;;;;;;7.82;1.85;;;;;;;;;;4964582;28;20578;-46
2023/05/25 09:01:15;;;;;;;6.90;1.73;;;;;;;;;;4972235;28;20054;-45
2023/05/25 09:03:43;;;;;;;6.45;1.88;;;;;;;;;;4983058;28;20046;-45
2023/05/25 09:06:11;;;;;;;8.35;1.90;;;;;;;;;;4976471;28;20391;-46
2023/05/25 09:08:40;;;;;;;6.43;1.57;;;;;;;;;;4975043;28;20042;-45
2023/05/25 09:11:08;;;;;;;7.28;2.17;;;;;;;;;;4967108;28;20046;-45
2023/05/25 09:13:37;;;;;;;6.18;1.70;;;;;;;;;;4976920;28;20081;-47
2023/05/25 09:16:07;;;;;;;12.00;2.47;;;;;;;;;;4971111;28;20045;-46
2023/05/25 09:18:35;;;;;;;7.80;1.63;;;;;;;;;;4981137;28;20042;-46
2023/05/25 09:21:04;;;;;;;8.03;1.80;;;;;;;;;;4953398;28;20054;-47
2023/05/25 09:23:32;;;;;;;6.05;2.03;;;;;;;;;;4974658;28;20042;-45
2023/05/25 09:26:00;;;;;;;5.60;1.73;;;;;;;;;;4957689;28;20530;-46
2023/05/25 09:28:28;;;;;;;4.53;1.42;;;;;;;;;;4983606;28;20563;-46
2023/05/25 09:30:56;;;;;;;11.02;2.28;;;;;;;;;;4965874;28;20566;-46
2023/05/25 09:33:30;;;;;;;7.63;1.50;;;;;;;;;;4993337;28;20046;-45
2023/05/25 09:36:01;;;;;;;6.75;1.70;;;;;;;;;;4975003;28;20510;-47
2023/05/25 09:38:30;;;;;;;8.15;1.70;;;;;;;;;;4986326;28;20443;-45
2023/05/25 09:40:58;;;;;;;7.32;1.95;;;;;;;;;;4955299;28;20289;-46
2023/05/25 09:43:26;;;;;;;7.13;2.05;;;;;;;;;;4978980;28;20127;-45
2023/05/25 09:46:08;;;;;;;7.73;1.90;;;;;;;;;;4981936;28;20060;-47
2023/05/25 09:48:38;;;;;;;6.93;1.98;;;;;;;;;;4962440;28;20788;-45
2023/05/25 09:51:06;;;;;;;7.72;1.75;;;;;;;;;;4983987;28;20034;-47
2023/05/25 09:53:34;;;;;;;4.18;1.25;;;;;;;;;;4974841;28;20634;-45
2023/05/25 09:56:03;;;;;;;5.70;1.70;;;;;;;;;;4980922;28;20046;-45
2023/05/25 09:58:33;;;;;;;6.77;1.67;;;;;;;;;;4967505;28;20409;-47
2023/05/25 10:01:03;;;;;;;8.77;1.48;;;;;;;;;;4953523;28;20038;-45
2023/05/25 10:03:32;;;;;;;6.13;1.83;;;;;;;;;;4975957;28;20046;-45
2023/05/25 10:06:01;;;;;;;7.03;2.08;;;;;;;;;;4970028;28;20117;-46
2023/05/25 10:08:29;;;;;;;8.10;1.95;;;;;;;;;;4963852;28;20042;-47
2023/05/25 10:10:59;;;;;;;8.53;1.97;;;;;;;;;;4974891;28;20455;-47
2023/05/25 10:13:27;;;;;;;9.00;1.65;;;;;;;;;;4970236;28;20046;-45
2023/05/25 10:15:55;;;;;;;7.55;1.98;;;;;;;;;;4962026;28;20037;-46
2023/05/25 10:18:24;;;;;;;8.75;1.80;;;;;;;;;;4959974;28;20648;-45
2023/05/25 10:20:58;;;;;;;7.10;1.80;;;;;;;;;;4969056;28;20061;-47
2023/05/25 10:23:35;;;;;;;8.57;2.03;;;;;;;;;;4966924;28;20049;-45
2023/05/25 10:26:04;;;;;;;7.63;1.70;;;;;;;;;;4955493;28;20053;-47
2023/05/25 10:28:35;;;;;;;8.38;1.90;;;;;;;;;;4970441;28;20123;-46
2023/05/25 10:31:03;;;;;;;7.35;1.75;;;;;;;;;;4962876;28;20117;-46
2023/05/25 10:33:32;;;;;;;10.75;2.25;;;;;;;;;;4949716;28;20525;-49
2023/05/25 10:36:02;;;;;;;9.50;2.10;;;;;;;;;;4968389;28;20559;-45
2023/05/25 10:38:40;;;;;;;9.82;1.50;;;;;;;;;;4973263;28;21127;-48
2023/05/25 10:41:09;;;;;;;6.90;1.83;;;;;;;;;;4972873;28;20041;-47
2023/05/25 10:43:37;;;;;;;6.32;1.50;;;;;;;;;;4966128;28;20109;-47
2023/05/25 10:46:05;;;;;;;4.65;1.30;;;;;;;;;;4979481;28;20048;-45
2023/05/25 10:48:36;;;;;;;8.43;2.07;;;;;;;;;;4969434;28;20225;-45
2023/05/25 10:51:03;;;;;;;7.55;1.75;;;;;;;;;;4970073;28;20049;-45
2023/05/25 10:53:32;;;;;;;5.60;2.00;;;;;;;;;;4963634;28;20488;-49
2023/05/25 10:56:02;;;;;;;7.75;2.22;;;;;;;;;;4971052;28;20524;-47
2023/05/25 10:58:33;;;;;;;5.65;1.80;;;;;;;;;;4968661;28;20047;-46
2023/05/25 11:01:06;;;;;;;5.67;1.63;;;;;;;;;;4967321;28;20492;-45
2023/05/25 11:03:53;;;;;;;6.05;1.60;;;;;;;;;;4969757;28;20497;-47
2023/05/25 11:06:22;;;;;;;7.22;2.20;;;;;;;;;;4963092;28;20583;-48
2023/05/25 11:08:50;;;;;;;6.60;1.85;;;;;;;;;;4977080;28;20058;-46
2023/05/25 11:11:20;;;;;;;7.25;1.75;;;;;;;;;;4962920;28;20034;-47
2023/05/25 11:13:49;;;;;;;10.53;2.67;;;;;;;;;;4971766;28;20409;-46
2023/05/25 11:16:18;;;;;;;7.65;2.00;;;;;;;;;;4961784;28;20042;-46
2023/05/25 11:18:50;;;;;;;7.63;1.50;;;;;;;;;;4983915;28;20489;-48
2023/05/25 11:21:23;;;;;;;9.80;1.50;;;;;;;;;;4985693;28;20056;-46
2023/05/25 11:23:54;;;;;;;5.25;1.50;;;;;;;;;;4978387;28;20060;-47
2023/05/25 11:26:24;;;;;;;4.90;1.70;;;;;;;;;;4984767;28;20046;-44
2023/05/25 11:28:58;;;;;;;6.70;1.80;;;;;;;;;;4984331;28;20076;-46
2023/05/25 11:31:29;;;;;;;6.63;2.30;;;;;;;;;;4981225;28;20039;-46
2023/05/25 11:34:00;;;;;;;6.15;1.88;;;;;;;;;;4985320;28;20042;-48
2023/05/25 11:36:30;;;;;;;6.53;1.85;;;;;;;;;;4989730;28;20092;-46
2023/05/25 11:39:00;;;;;;;5.53;1.90;;;;;;;;;;4951586;28;20244;-49
2023/05/25 11:41:46;;;;;;;6.47;1.67;;;;;;;;;;4980915;28;20503;-47
2023/05/25 11:44:15;;;;;;;8.07;1.65;;;;;;;;;;4968637;28;20528;-45
2023/05/25 11:46:47;;;;;;;6.28;1.88;;;;;;;;;;4985314;28;20064;-46
2023/05/25 11:49:15;;;;;;;6.35;1.75;;;;;;;;;;4967263;28;20089;-46
2023/05/25 11:51:43;;;;;;;4.87;1.73;;;;;;;;;;4976625;28;20042;-48
2023/05/25 11:54:20;;;;;;;6.82;1.90;;;;;;;;;;4984915;28;20074;-47
2023/05/25 11:56:50;;;;;;;5.30;1.65;;;;;;;;;;4956888;28;20030;-47
2023/05/25 11:59:22;;;;;;;5.05;1.50;;;;;;;;;;4972913;28;20042;-46
2023/05/25 12:01:55;;;;;;;7.63;1.95;;;;;;;;;;4980554;28;20137;-49
2023/05/25 12:04:24;;;;;;;9.00;2.20;;;;;;;;;;4970774;28;20045;-44
2023/05/25 12:06:52;;;;;;;4.82;1.60;;;;;;;;;;4978279;28;20038;-46
2023/05/25 12:09:20;;;;;;;5.65;1.95;;;;;;;;;;4968032;28;20637;-47
2023/05/25 12:11:51;;;;;;;6.30;2.63;;;;;;;;;;4987972;28;20654;-45
2023/05/25 12:14:19;;;;;;;8.23;2.40;;;;;;;;;;4962229;28;20045;-45
2023/05/25 12:16:47;;;;;;;5.53;1.80;;;;;;;;;;4988528;28;20734;-46
2023/05/25 12:19:15;;;;;;;5.82;1.88;;;;;;;;;;4941948;28;20154;-45
2023/05/25 12:21:43;;;;;;;5.75;1.85;;;;;;;;;;4967405;28;20052;-44
2023/05/25 12:24:12;;;;;;;9.38;2.50;;;;;;;;;;4972321;28;20058;-45
2023/05/25 12:26:46;;;;;;;8.13;2.33;;;;;;;;;;4983465;28;20038;-47
2023/05/25 12:29:16;;;;;;;5.90;2.53;;;;;;;;;;4980776;28;20601;-47
2023/05/25 12:31:45;;;;;;;6.82;2.33;;;;;;;;;;4969664;28;20046;-46
2023/05/25 12:34:13;;;;;;;7.60;2.47;;;;;;;;;;4979332;28;20039;-47
2023/05/25 12:36:43;;;;;;;5.95;2.10;;;;;;;;;;4965740;28;20475;-45
2023/05/25 12:39:12;;;;;;;6.22;2.45;;;;;;;;;;4979291;28;20046;-50
2023/05/25 12:41:44;;;;;;;8.43;2.17;;;;;;;;;;4979607;28;20465;-48
2023/05/25 12:44:21;;;;;;;9.57;2.10;;;;;;;;;;4970350;28;20045;-48
2023/05/25 12:46:50;;;;;;;6.40;2.85;;;;;;;;;;4974451;28;20038;-45
2023/05/25 12:49:22;;;;;;;7.43;2.33;;;;;;;;;;4973100;28;20045;-46
2023/05/25 12:51:50;;;;;;;7.93;2.65;;;;;;;;;;4975101;28;20057;-49
2023/05/25 12:54:32;;;;;;;4.57;1.70;;;;;;;;;;4986175;28;20458;-45
2023/05/25 12:57:01;;;;;;;5.95;2.05;;;;;;;;;;4972275;28;20472;-49
2023/05/25 12:59:30;;;;;;;6.40;2.30;;;;;;;;;;4970149;28;20061;-48
2023/05/25 13:01:58;;;;;;;6.55;2.10;;;;;;;;;;4976751;28;20041;-45
2023/05/25 13:04:26;;;;;;;7.38;2.90;;;;;;;;;;4966417;28;20701;-44
2023/05/25 13:06:54;;;;;;;9.37;3.07;;;;;;;;;;4973938;28;20045;-45
2023/05/25 13:09:23;;;;;;;8.77;2.78;;;;;;;;;;4970351;28;20820;-46
2023/05/25 13:11:54;;;;;;;5.70;2.13;;;;;;;;;;4981690;28;20245;-45
2023/05/25 13:14:22;;;;;;;11.05;3.50;;;;;;;;;;4972151;28;20034;-45
2023/05/25 13:16:51;;;;;;;8.52;2.88;;;;;;;;;;4986114;28;20056;-45
2023/05/25 13:19:20;;;;;;;9.13;3.13;;;;;;;;;;4967930;28;20038;-48
2023/05/25 13:21:49;;;;;;;6.38;2.78;;;;;;;;;;4976530;28;20055;-44
2023/05/25 13:24:19;;;;;;;7.65;3.05;;;;;;;;;;4950402;28;20038;-44
2023/05/25 13:26:49;;;;;;;8.27;2.97;;;;;;;;;;4988415;28;20041;-49
2023/05/25 13:29:17;;;;;;;7.00;2.90;;;;;;;;;;4991394;28;20801;-46
2023/05/25 13:31:45;;;;;;;9.57;2.73;;;;;;;;;;4950544;28;20620;-44
2023/05/25 13:34:16;;;;;;;10.80;3.15;;;;;;;;;;4984307;28;20728;-45
2023/05/25 13:36:44;;;;;;;8.57;2.75;;;;;;;;;;4979569;28;20038;-46
2023/05/25 13:39:12;;;;;;;10.35;3.20;;;;;;;;;;4962848;28;20039;-45
2023/05/25 13:41:41;;;;;;;5.07;1.73;;;;;;;;;;4981845;28;20041;-44
2023/05/25 13:44:09;;;;;;;8.90;2.90;;;;;;;;;;4976641;28;20050;-47
2023/05/25 13:46:37;;;;;;;9.70;3.25;;;;;;;;;;4973685;28;20129;-46
2023/05/25 13:49:06;;;;;;;8.48;3.30;;;;;;;;;;4950704;28;20466;-46
2023/05/25 13:51:37;;;;;;;7.53;3.15;;;;;;;;;;4975377;28;20088;-46
2023/05/25 13:54:04;;;;;;;12.07;2.85;;;;;;;;;;4977597;28;20058;-47
2023/05/25 13:56:33;;;;;;;9.33;3.53;;;;;;;;;;4977956;28;20373;-46
2023/05/25 13:59:01;;;;;;;8.73;3.70;;;;;;;;;;4970482;28;20627;-48
2023/05/25 14:01:29;;;;;;;7.88;3.13;;;;;;;;;;4944836;28;20828;-46
2023/05/25 14:03:58;;;;;;;12.32;3.83;;;;;;;;;;4982507;28;20186;-45
2023/05/25 14:06:27;;;;;;;7.30;3.20;;;;;;;;;;4921023;28;20869;-46
2023/05/25 14:08:56;;;;;;;10.67;3.33;;;;;;;;;;4966628;28;20046;-46
2023/05/25 14:11:25;;;;;;;9.10;3.60;;;;;;;;;;4954791;28;20112;-45
2023/05/25 14:13:55;;;;;;;10.23;3.72;;;;;;;;;;4963278;28;20554;-47
2023/05/25 14:16:23;;;;;;;5.38;2.58;;;;;;;;;;4960483;28;20049;-46
2023/05/25 14:18:51;;;;;;;9.07;2.90;;;;;;;;;;4961268;28;20168;-46
2023/05/25 14:21:19;;;;;;;8.60;3.00;;;;;;;;;;4970274;28;20053;-47
2023/05/25 14:23:47;;;;;;;11.82;2.85;;;;;;;;;;4958938;28;20100;-47
2023/05/25 14:26:18;;;;;;;7.03;3.08;;;;;;;;;;4965032;28;20099;-45
2023/05/25 14:28:45;;;;;;;9.55;2.97;;;;;;;;;;4971897;28;20515;-46
2023/05/25 14:31:13;;;;;;;7.30;2.67;;;;;;;;;;4956857;28;20052;-47
2023/05/25 14:33:42;;;;;;;8.73;3.20;;;;;;;;;;4967550;28;20077;-45
2023/05/25 14:36:09;;;;;;;9.27;3.13;;;;;;;;;;4960370;28;20133;-46
2023/05/25 14:38:37;;;;;;;7.32;3.42;;;;;;;;;;4957425;28;20050;-47
2023/05/25 14:41:05;;;;;;;6.25;3.10;;;;;;;;;;4954627;28;20205;-48
2023/05/25 14:43:35;;;;;;;10.32;3.28;;;;;;;;;;4967352;28;20038;-48
2023/05/25 14:46:03;;;;;;;8.60;2.20;;;;;;;;;;4967423;28;20046;-47
2023/05/25 14:48:31;;;;;;;7.47;2.67;;;;;;;;;;4962038;28;20053;-46